sensor_id;sensor_type;location;lat;lon;timestamp;P1;P2;P0
12542;PMS3003;6337;49.556;25.594;2022-12-31T00:00:16;54.47;35.30;
12542;PMS3003;6337;49.556;25.594;2022-12-31T00:02:44;44.10;31.93;
12542;PMS3003;6337;49.556;25.594;2022-12-31T00:05:13;49.43;34.53;
12542;PMS3003;6337;49.556;25.594;2022-12-31T00:07:41;51.47;35.47;
12542;PMS3003;6337;49.556;25.594;2022-12-31T00:10:09;56.07;36.20;
12542;PMS3003;6337;49.556;25.594;2022-12-31T00:12:38;57.37;35.00;
12542;PMS3003;6337;49.556;25.594;2022-12-31T00:15:06;51.40;34.57;
12542;PMS3003;6337;49.556;25.594;2022-12-31T00:17:35;73.20;38.80;
12542;PMS3003;6337;49.556;25.594;2022-12-31T00:20:02;62.70;40.67;
12542;PMS3003;6337;49.556;25.594;2022-12-31T00:22:33;85.30;43.83;
12542;PMS3003;6337;49.556;25.594;2022-12-31T00:25:01;79.13;44.13;
12542;PMS3003;6337;49.556;25.594;2022-12-31T00:27:29;84.33;48.93;
12542;PMS3003;6337;49.556;25.594;2022-12-31T00:29:56;77.97;44.67;
12542;PMS3003;6337;49.556;25.594;2022-12-31T00:32:26;60.73;39.27;
12542;PMS3003;6337;49.556;25.594;2022-12-31T00:35:01;64.17;38.27;
12542;PMS3003;6337;49.556;25.594;2022-12-31T00:37:38;67.67;38.10;
12542;PMS3003;6337;49.556;25.594;2022-12-31T00:40:06;69.17;42.00;
12542;PMS3003;6337;49.556;25.594;2022-12-31T00:42:34;61.57;40.33;
12542;PMS3003;6337;49.556;25.594;2022-12-31T00:45:03;68.33;39.27;
12542;PMS3003;6337;49.556;25.594;2022-12-31T00:47:32;61.40;38.87;
12542;PMS3003;6337;49.556;25.594;2022-12-31T00:50:00;73.33;42.53;
12542;PMS3003;6337;49.556;25.594;2022-12-31T00:52:27;84.70;45.63;
12542;PMS3003;6337;49.556;25.594;2022-12-31T00:54:57;79.10;46.40;
12542;PMS3003;6337;49.556;25.594;2022-12-31T00:57:28;81.20;44.33;
12542;PMS3003;6337;49.556;25.594;2022-12-31T00:59:55;73.03;41.50;
12542;PMS3003;6337;49.556;25.594;2022-12-31T01:02:23;83.10;46.73;
12542;PMS3003;6337;49.556;25.594;2022-12-31T01:04:52;95.57;46.03;
12542;PMS3003;6337;49.556;25.594;2022-12-31T01:07:20;100.07;47.50;
12542;PMS3003;6337;49.556;25.594;2022-12-31T01:09:47;82.93;41.70;
12542;PMS3003;6337;49.556;25.594;2022-12-31T01:12:20;69.57;44.20;
12542;PMS3003;6337;49.556;25.594;2022-12-31T01:14:50;73.70;43.05;
12542;PMS3003;6337;49.556;25.594;2022-12-31T01:17:18;81.27;41.93;
12542;PMS3003;6337;49.556;25.594;2022-12-31T01:19:45;77.90;43.47;
12542;PMS3003;6337;49.556;25.594;2022-12-31T01:22:14;79.50;41.43;
12542;PMS3003;6337;49.556;25.594;2022-12-31T01:24:41;82.70;42.67;
12542;PMS3003;6337;49.556;25.594;2022-12-31T01:27:09;85.97;43.33;
12542;PMS3003;6337;49.556;25.594;2022-12-31T01:29:39;92.80;46.70;
12542;PMS3003;6337;49.556;25.594;2022-12-31T01:32:07;80.97;48.97;
12542;PMS3003;6337;49.556;25.594;2022-12-31T01:34:34;88.72;47.75;
12542;PMS3003;6337;49.556;25.594;2022-12-31T01:37:02;74.38;44.03;
12542;PMS3003;6337;49.556;25.594;2022-12-31T01:39:30;85.13;49.43;
12542;PMS3003;6337;49.556;25.594;2022-12-31T01:41:58;82.90;44.45;
12542;PMS3003;6337;49.556;25.594;2022-12-31T01:47:14;140.10;63.43;
12542;PMS3003;6337;49.556;25.594;2022-12-31T01:49:45;148.87;74.37;
12542;PMS3003;6337;49.556;25.594;2022-12-31T01:52:14;114.53;62.43;
12542;PMS3003;6337;49.556;25.594;2022-12-31T01:54:46;76.17;43.30;
12542;PMS3003;6337;49.556;25.594;2022-12-31T01:57:15;75.10;43.80;
12542;PMS3003;6337;49.556;25.594;2022-12-31T01:59:44;85.87;44.73;
12542;PMS3003;6337;49.556;25.594;2022-12-31T02:02:17;72.10;40.80;
12542;PMS3003;6337;49.556;25.594;2022-12-31T02:04:47;65.40;37.40;
12542;PMS3003;6337;49.556;25.594;2022-12-31T02:07:17;60.83;35.77;
12542;PMS3003;6337;49.556;25.594;2022-12-31T02:09:44;81.73;42.93;
12542;PMS3003;6337;49.556;25.594;2022-12-31T02:12:12;91.23;48.63;
12542;PMS3003;6337;49.556;25.594;2022-12-31T02:14:40;114.70;55.50;
12542;PMS3003;6337;49.556;25.594;2022-12-31T02:17:10;99.87;52.17;
12542;PMS3003;6337;49.556;25.594;2022-12-31T02:22:28;106.10;47.37;
12542;PMS3003;6337;49.556;25.594;2022-12-31T02:25:08;78.73;35.83;
12542;PMS3003;6337;49.556;25.594;2022-12-31T02:27:51;75.77;33.30;
12542;PMS3003;6337;49.556;25.594;2022-12-31T02:30:22;57.90;31.17;
12542;PMS3003;6337;49.556;25.594;2022-12-31T02:32:57;62.60;32.93;
12542;PMS3003;6337;49.556;25.594;2022-12-31T02:35:28;44.73;28.43;
12542;PMS3003;6337;49.556;25.594;2022-12-31T02:38:00;51.27;25.60;
12542;PMS3003;6337;49.556;25.594;2022-12-31T02:40:29;40.87;24.30;
12542;PMS3003;6337;49.556;25.594;2022-12-31T02:42:59;50.50;26.47;
12542;PMS3003;6337;49.556;25.594;2022-12-31T02:45:38;50.23;27.00;
12542;PMS3003;6337;49.556;25.594;2022-12-31T02:48:15;65.20;32.23;
12542;PMS3003;6337;49.556;25.594;2022-12-31T02:50:50;64.67;38.10;
12542;PMS3003;6337;49.556;25.594;2022-12-31T02:53:28;100.80;45.07;
12542;PMS3003;6337;49.556;25.594;2022-12-31T02:55:57;128.20;59.27;
12542;PMS3003;6337;49.556;25.594;2022-12-31T02:58:30;108.30;47.30;
12542;PMS3003;6337;49.556;25.594;2022-12-31T03:01:16;97.77;46.23;
12542;PMS3003;6337;49.556;25.594;2022-12-31T03:04:03;82.53;40.80;
12542;PMS3003;6337;49.556;25.594;2022-12-31T03:06:45;72.40;37.83;
12542;PMS3003;6337;49.556;25.594;2022-12-31T03:09:14;72.30;36.33;
12542;PMS3003;6337;49.556;25.594;2022-12-31T03:11:43;58.93;28.27;
12542;PMS3003;6337;49.556;25.594;2022-12-31T03:14:28;54.43;26.33;
12542;PMS3003;6337;49.556;25.594;2022-12-31T03:16:57;51.20;29.60;
12542;PMS3003;6337;49.556;25.594;2022-12-31T03:19:25;51.67;27.77;
12542;PMS3003;6337;49.556;25.594;2022-12-31T03:22:11;54.63;28.67;
12542;PMS3003;6337;49.556;25.594;2022-12-31T03:24:54;53.60;29.33;
12542;PMS3003;6337;49.556;25.594;2022-12-31T03:27:40;50.20;28.77;
12542;PMS3003;6337;49.556;25.594;2022-12-31T03:30:08;57.43;28.47;
12542;PMS3003;6337;49.556;25.594;2022-12-31T03:32:37;50.33;27.10;
12542;PMS3003;6337;49.556;25.594;2022-12-31T03:35:06;53.40;30.90;
12542;PMS3003;6337;49.556;25.594;2022-12-31T03:37:35;43.93;24.57;
12542;PMS3003;6337;49.556;25.594;2022-12-31T03:40:03;57.10;31.27;
12542;PMS3003;6337;49.556;25.594;2022-12-31T03:42:31;73.73;38.67;
12542;PMS3003;6337;49.556;25.594;2022-12-31T03:45:00;84.70;39.37;
12542;PMS3003;6337;49.556;25.594;2022-12-31T03:47:29;75.77;38.33;
12542;PMS3003;6337;49.556;25.594;2022-12-31T03:49:58;62.77;31.57;
12542;PMS3003;6337;49.556;25.594;2022-12-31T03:52:28;54.80;28.30;
12542;PMS3003;6337;49.556;25.594;2022-12-31T03:54:56;48.97;27.00;
12542;PMS3003;6337;49.556;25.594;2022-12-31T03:57:27;56.07;30.03;
12542;PMS3003;6337;49.556;25.594;2022-12-31T03:59:54;49.97;27.47;
12542;PMS3003;6337;49.556;25.594;2022-12-31T04:02:22;54.30;33.90;
12542;PMS3003;6337;49.556;25.594;2022-12-31T04:04:50;57.10;30.93;
12542;PMS3003;6337;49.556;25.594;2022-12-31T04:07:19;51.80;31.10;
12542;PMS3003;6337;49.556;25.594;2022-12-31T04:09:47;52.23;29.50;
12542;PMS3003;6337;49.556;25.594;2022-12-31T04:12:14;52.97;27.97;
12542;PMS3003;6337;49.556;25.594;2022-12-31T04:14:42;48.33;26.70;
12542;PMS3003;6337;49.556;25.594;2022-12-31T04:17:10;44.03;26.10;
12542;PMS3003;6337;49.556;25.594;2022-12-31T04:19:37;49.80;27.53;
12542;PMS3003;6337;49.556;25.594;2022-12-31T04:22:05;43.40;25.87;
12542;PMS3003;6337;49.556;25.594;2022-12-31T04:24:34;45.23;26.27;
12542;PMS3003;6337;49.556;25.594;2022-12-31T04:27:02;54.00;29.40;
12542;PMS3003;6337;49.556;25.594;2022-12-31T04:29:30;46.40;26.20;
12542;PMS3003;6337;49.556;25.594;2022-12-31T04:31:58;47.83;26.87;
12542;PMS3003;6337;49.556;25.594;2022-12-31T04:34:26;51.53;27.43;
12542;PMS3003;6337;49.556;25.594;2022-12-31T04:36:55;44.10;26.73;
12542;PMS3003;6337;49.556;25.594;2022-12-31T04:39:23;50.53;26.43;
12542;PMS3003;6337;49.556;25.594;2022-12-31T04:41:52;44.77;26.87;
12542;PMS3003;6337;49.556;25.594;2022-12-31T04:44:20;54.60;31.47;
12542;PMS3003;6337;49.556;25.594;2022-12-31T04:46:48;56.30;28.90;
12542;PMS3003;6337;49.556;25.594;2022-12-31T04:49:16;54.83;30.30;
12542;PMS3003;6337;49.556;25.594;2022-12-31T04:51:44;55.97;28.37;
12542;PMS3003;6337;49.556;25.594;2022-12-31T04:54:11;53.90;31.67;
12542;PMS3003;6337;49.556;25.594;2022-12-31T04:56:41;63.23;34.30;
12542;PMS3003;6337;49.556;25.594;2022-12-31T04:59:10;63.77;33.90;
12542;PMS3003;6337;49.556;25.594;2022-12-31T05:01:40;74.25;38.90;
12542;PMS3003;6337;49.556;25.594;2022-12-31T05:04:08;74.78;42.05;
12542;PMS3003;6337;49.556;25.594;2022-12-31T05:06:35;88.23;45.50;
12542;PMS3003;6337;49.556;25.594;2022-12-31T05:09:03;86.03;47.77;
12542;PMS3003;6337;49.556;25.594;2022-12-31T05:11:32;78.97;45.47;
12542;PMS3003;6337;49.556;25.594;2022-12-31T05:14:01;77.75;44.33;
12542;PMS3003;6337;49.556;25.594;2022-12-31T05:16:30;86.53;47.43;
12542;PMS3003;6337;49.556;25.594;2022-12-31T05:18:58;72.00;41.78;
12542;PMS3003;6337;49.556;25.594;2022-12-31T05:21:28;64.40;36.23;
12542;PMS3003;6337;49.556;25.594;2022-12-31T05:23:56;67.63;41.80;
12542;PMS3003;6337;49.556;25.594;2022-12-31T05:26:25;67.20;40.23;
12542;PMS3003;6337;49.556;25.594;2022-12-31T05:28:52;77.87;40.93;
12542;PMS3003;6337;49.556;25.594;2022-12-31T05:31:20;69.20;43.00;
12542;PMS3003;6337;49.556;25.594;2022-12-31T05:33:50;65.10;42.50;
12542;PMS3003;6337;49.556;25.594;2022-12-31T05:36:19;64.50;41.90;
12542;PMS3003;6337;49.556;25.594;2022-12-31T05:38:47;60.23;38.67;
12542;PMS3003;6337;49.556;25.594;2022-12-31T05:41:14;63.07;37.27;
12542;PMS3003;6337;49.556;25.594;2022-12-31T05:43:42;60.35;37.75;
12542;PMS3003;6337;49.556;25.594;2022-12-31T05:46:10;54.97;34.37;
12542;PMS3003;6337;49.556;25.594;2022-12-31T05:48:38;70.40;37.60;
12542;PMS3003;6337;49.556;25.594;2022-12-31T05:51:07;61.93;33.27;
12542;PMS3003;6337;49.556;25.594;2022-12-31T05:53:35;70.70;36.40;
12542;PMS3003;6337;49.556;25.594;2022-12-31T05:56:06;65.57;37.87;
12542;PMS3003;6337;49.556;25.594;2022-12-31T05:58:34;56.63;37.13;
12542;PMS3003;6337;49.556;25.594;2022-12-31T06:01:02;69.70;40.10;
12542;PMS3003;6337;49.556;25.594;2022-12-31T06:03:32;76.57;41.57;
12542;PMS3003;6337;49.556;25.594;2022-12-31T06:05:59;58.80;39.83;
12542;PMS3003;6337;49.556;25.594;2022-12-31T06:08:31;54.63;37.10;
12542;PMS3003;6337;49.556;25.594;2022-12-31T06:10:58;59.80;37.00;
12542;PMS3003;6337;49.556;25.594;2022-12-31T06:13:26;51.87;33.83;
12542;PMS3003;6337;49.556;25.594;2022-12-31T06:15:57;55.07;33.20;
12542;PMS3003;6337;49.556;25.594;2022-12-31T06:18:31;63.90;37.43;
12542;PMS3003;6337;49.556;25.594;2022-12-31T06:20:59;65.00;37.00;
12542;PMS3003;6337;49.556;25.594;2022-12-31T06:23:30;58.63;34.50;
12542;PMS3003;6337;49.556;25.594;2022-12-31T06:26:00;61.67;33.17;
12542;PMS3003;6337;49.556;25.594;2022-12-31T06:28:28;48.30;26.90;
12542;PMS3003;6337;49.556;25.594;2022-12-31T06:30:57;35.77;23.97;
12542;PMS3003;6337;49.556;25.594;2022-12-31T06:33:26;35.90;23.20;
12542;PMS3003;6337;49.556;25.594;2022-12-31T06:35:55;28.67;20.17;
12542;PMS3003;6337;49.556;25.594;2022-12-31T06:38:25;41.37;23.80;
12542;PMS3003;6337;49.556;25.594;2022-12-31T06:40:56;44.50;23.10;
12542;PMS3003;6337;49.556;25.594;2022-12-31T06:43:25;49.57;26.67;
12542;PMS3003;6337;49.556;25.594;2022-12-31T06:45:52;44.67;24.27;
12542;PMS3003;6337;49.556;25.594;2022-12-31T06:48:20;43.23;26.83;
12542;PMS3003;6337;49.556;25.594;2022-12-31T06:50:47;40.43;24.87;
12542;PMS3003;6337;49.556;25.594;2022-12-31T06:53:16;46.67;25.50;
12542;PMS3003;6337;49.556;25.594;2022-12-31T06:55:46;45.83;23.43;
12542;PMS3003;6337;49.556;25.594;2022-12-31T06:58:21;43.37;25.47;
12542;PMS3003;6337;49.556;25.594;2022-12-31T07:00:49;40.17;24.20;
12542;PMS3003;6337;49.556;25.594;2022-12-31T07:03:23;49.20;27.60;
12542;PMS3003;6337;49.556;25.594;2022-12-31T07:05:54;56.77;30.80;
12542;PMS3003;6337;49.556;25.594;2022-12-31T07:08:31;48.30;30.10;
12542;PMS3003;6337;49.556;25.594;2022-12-31T07:11:13;54.20;31.13;
12542;PMS3003;6337;49.556;25.594;2022-12-31T07:19:23;50.60;28.90;
12542;PMS3003;6337;49.556;25.594;2022-12-31T07:21:54;51.90;27.77;
12542;PMS3003;6337;49.556;25.594;2022-12-31T07:24:25;54.87;32.40;
12542;PMS3003;6337;49.556;25.594;2022-12-31T07:27:11;52.87;32.50;
12542;PMS3003;6337;49.556;25.594;2022-12-31T07:29:50;61.93;35.83;
12542;PMS3003;6337;49.556;25.594;2022-12-31T07:32:23;69.03;34.80;
12542;PMS3003;6337;49.556;25.594;2022-12-31T07:34:58;55.83;31.20;
12542;PMS3003;6337;49.556;25.594;2022-12-31T07:37:32;47.07;27.20;
12542;PMS3003;6337;49.556;25.594;2022-12-31T07:40:07;45.23;24.67;
12542;PMS3003;6337;49.556;25.594;2022-12-31T07:42:40;39.40;26.60;
12542;PMS3003;6337;49.556;25.594;2022-12-31T07:45:13;78.97;41.03;
12542;PMS3003;6337;49.556;25.594;2022-12-31T07:47:42;77.47;40.60;
12542;PMS3003;6337;49.556;25.594;2022-12-31T07:50:15;53.03;31.73;
12542;PMS3003;6337;49.556;25.594;2022-12-31T07:52:45;71.43;32.50;
12542;PMS3003;6337;49.556;25.594;2022-12-31T07:55:13;62.77;36.97;
12542;PMS3003;6337;49.556;25.594;2022-12-31T07:57:44;96.80;47.47;
12542;PMS3003;6337;49.556;25.594;2022-12-31T08:00:14;80.67;45.90;
12542;PMS3003;6337;49.556;25.594;2022-12-31T08:02:59;70.10;41.53;
12542;PMS3003;6337;49.556;25.594;2022-12-31T08:05:31;75.53;46.80;
12542;PMS3003;6337;49.556;25.594;2022-12-31T08:08:07;90.07;49.90;
12542;PMS3003;6337;49.556;25.594;2022-12-31T08:10:48;58.23;37.90;
12542;PMS3003;6337;49.556;25.594;2022-12-31T08:13:24;61.17;41.40;
12542;PMS3003;6337;49.556;25.594;2022-12-31T08:15:54;64.43;38.47;
12542;PMS3003;6337;49.556;25.594;2022-12-31T08:18:36;54.33;32.50;
12542;PMS3003;6337;49.556;25.594;2022-12-31T08:21:12;55.47;34.20;
12542;PMS3003;6337;49.556;25.594;2022-12-31T08:23:46;56.57;31.03;
12542;PMS3003;6337;49.556;25.594;2022-12-31T08:26:21;61.30;32.47;
12542;PMS3003;6337;49.556;25.594;2022-12-31T08:28:55;54.10;29.53;
12542;PMS3003;6337;49.556;25.594;2022-12-31T08:31:26;45.43;28.07;
12542;PMS3003;6337;49.556;25.594;2022-12-31T08:33:59;56.13;29.43;
12542;PMS3003;6337;49.556;25.594;2022-12-31T08:36:32;43.37;27.77;
12542;PMS3003;6337;49.556;25.594;2022-12-31T08:39:05;46.97;27.37;
12542;PMS3003;6337;49.556;25.594;2022-12-31T08:41:36;40.70;27.30;
12542;PMS3003;6337;49.556;25.594;2022-12-31T08:44:08;42.83;27.97;
12542;PMS3003;6337;49.556;25.594;2022-12-31T08:46:38;43.00;27.43;
12542;PMS3003;6337;49.556;25.594;2022-12-31T08:49:12;37.13;25.40;
12542;PMS3003;6337;49.556;25.594;2022-12-31T08:51:44;46.17;27.50;
12542;PMS3003;6337;49.556;25.594;2022-12-31T08:54:13;48.87;27.00;
12542;PMS3003;6337;49.556;25.594;2022-12-31T08:56:45;54.53;26.43;
12542;PMS3003;6337;49.556;25.594;2022-12-31T08:59:23;48.50;27.30;
12542;PMS3003;6337;49.556;25.594;2022-12-31T09:02:11;46.00;26.30;
12542;PMS3003;6337;49.556;25.594;2022-12-31T09:04:48;45.33;26.73;
12542;PMS3003;6337;49.556;25.594;2022-12-31T09:07:22;43.70;26.40;
12542;PMS3003;6337;49.556;25.594;2022-12-31T09:09:58;45.57;26.10;
12542;PMS3003;6337;49.556;25.594;2022-12-31T09:12:30;47.57;28.20;
12542;PMS3003;6337;49.556;25.594;2022-12-31T09:15:05;47.23;25.90;
12542;PMS3003;6337;49.556;25.594;2022-12-31T09:17:40;58.17;27.70;
12542;PMS3003;6337;49.556;25.594;2022-12-31T09:20:15;42.63;26.70;
12542;PMS3003;6337;49.556;25.594;2022-12-31T09:22:46;43.87;25.70;
12542;PMS3003;6337;49.556;25.594;2022-12-31T09:25:15;38.87;23.23;
12542;PMS3003;6337;49.556;25.594;2022-12-31T09:27:45;35.37;22.33;
12542;PMS3003;6337;49.556;25.594;2022-12-31T09:30:15;38.50;23.87;
12542;PMS3003;6337;49.556;25.594;2022-12-31T09:32:46;36.50;20.47;
12542;PMS3003;6337;49.556;25.594;2022-12-31T09:35:18;37.43;22.40;
12542;PMS3003;6337;49.556;25.594;2022-12-31T09:37:53;41.83;23.40;
12542;PMS3003;6337;49.556;25.594;2022-12-31T09:40:28;38.33;23.97;
12542;PMS3003;6337;49.556;25.594;2022-12-31T09:45:52;41.97;23.93;
12542;PMS3003;6337;49.556;25.594;2022-12-31T09:51:20;35.93;21.70;
12542;PMS3003;6337;49.556;25.594;2022-12-31T09:56:44;44.07;23.17;
12542;PMS3003;6337;49.556;25.594;2022-12-31T09:59:12;30.40;18.87;
12542;PMS3003;6337;49.556;25.594;2022-12-31T10:01:45;35.17;24.00;
12542;PMS3003;6337;49.556;25.594;2022-12-31T10:04:34;35.73;20.33;
12542;PMS3003;6337;49.556;25.594;2022-12-31T10:07:14;46.10;23.20;
12542;PMS3003;6337;49.556;25.594;2022-12-31T10:18:12;36.57;22.10;
12542;PMS3003;6337;49.556;25.594;2022-12-31T10:20:47;35.63;21.23;
12542;PMS3003;6337;49.556;25.594;2022-12-31T10:26:12;45.90;23.43;
12542;PMS3003;6337;49.556;25.594;2022-12-31T10:28:48;38.60;21.77;
12542;PMS3003;6337;49.556;25.594;2022-12-31T10:31:21;31.70;21.57;
12542;PMS3003;6337;49.556;25.594;2022-12-31T10:34:14;36.90;21.50;
12542;PMS3003;6337;49.556;25.594;2022-12-31T10:36:54;36.53;22.37;
12542;PMS3003;6337;49.556;25.594;2022-12-31T10:39:31;32.67;20.17;
12542;PMS3003;6337;49.556;25.594;2022-12-31T10:42:09;46.57;21.87;
12542;PMS3003;6337;49.556;25.594;2022-12-31T10:47:40;31.20;19.47;
12542;PMS3003;6337;49.556;25.594;2022-12-31T10:50:32;32.00;20.13;
12542;PMS3003;6337;49.556;25.594;2022-12-31T10:56:22;32.17;18.80;
12542;PMS3003;6337;49.556;25.594;2022-12-31T11:01:46;33.83;22.57;
12542;PMS3003;6337;49.556;25.594;2022-12-31T11:15:29;37.33;20.97;
12542;PMS3003;6337;49.556;25.594;2022-12-31T11:18:05;35.00;19.67;
12542;PMS3003;6337;49.556;25.594;2022-12-31T11:20:38;43.00;21.00;
12542;PMS3003;6337;49.556;25.594;2022-12-31T11:23:14;35.47;22.53;
12542;PMS3003;6337;49.556;25.594;2022-12-31T11:25:51;41.13;20.60;
12542;PMS3003;6337;49.556;25.594;2022-12-31T11:28:29;44.87;23.33;
12542;PMS3003;6337;49.556;25.594;2022-12-31T11:31:30;34.03;22.03;
12542;PMS3003;6337;49.556;25.594;2022-12-31T11:34:12;38.17;23.47;
12542;PMS3003;6337;49.556;25.594;2022-12-31T11:36:43;38.73;23.37;
12542;PMS3003;6337;49.556;25.594;2022-12-31T11:39:20;45.40;27.60;
12542;PMS3003;6337;49.556;25.594;2022-12-31T11:42:02;47.93;26.77;
12542;PMS3003;6337;49.556;25.594;2022-12-31T11:47:34;30.97;20.13;
12542;PMS3003;6337;49.556;25.594;2022-12-31T11:50:19;24.27;19.70;
12542;PMS3003;6337;49.556;25.594;2022-12-31T11:52:58;33.90;19.20;
12542;PMS3003;6337;49.556;25.594;2022-12-31T11:55:29;32.37;18.17;
12542;PMS3003;6337;49.556;25.594;2022-12-31T11:58:08;25.97;18.50;
12542;PMS3003;6337;49.556;25.594;2022-12-31T12:06:22;39.03;19.23;
12542;PMS3003;6337;49.556;25.594;2022-12-31T12:08:52;29.33;18.40;
12542;PMS3003;6337;49.556;25.594;2022-12-31T12:11:23;29.50;17.80;
12542;PMS3003;6337;49.556;25.594;2022-12-31T12:14:17;29.40;20.00;
12542;PMS3003;6337;49.556;25.594;2022-12-31T12:16:54;33.33;19.90;
12542;PMS3003;6337;49.556;25.594;2022-12-31T12:19:31;33.03;19.77;
12542;PMS3003;6337;49.556;25.594;2022-12-31T12:22:19;31.70;18.40;
12542;PMS3003;6337;49.556;25.594;2022-12-31T12:24:56;36.33;20.20;
12542;PMS3003;6337;49.556;25.594;2022-12-31T12:27:34;30.03;19.83;
12542;PMS3003;6337;49.556;25.594;2022-12-31T12:30:16;31.53;17.67;
12542;PMS3003;6337;49.556;25.594;2022-12-31T12:32:50;32.07;18.53;
12542;PMS3003;6337;49.556;25.594;2022-12-31T12:35:27;39.33;20.50;
12542;PMS3003;6337;49.556;25.594;2022-12-31T12:38:12;33.70;18.20;
12542;PMS3003;6337;49.556;25.594;2022-12-31T12:40:51;32.30;19.20;
12542;PMS3003;6337;49.556;25.594;2022-12-31T12:43:21;31.03;17.67;
12542;PMS3003;6337;49.556;25.594;2022-12-31T12:45:55;24.67;16.90;
12542;PMS3003;6337;49.556;25.594;2022-12-31T12:48:28;30.70;18.40;
12542;PMS3003;6337;49.556;25.594;2022-12-31T12:50:59;33.43;18.77;
12542;PMS3003;6337;49.556;25.594;2022-12-31T12:56:21;31.27;18.47;
12542;PMS3003;6337;49.556;25.594;2022-12-31T12:58:57;29.40;18.47;
12542;PMS3003;6337;49.556;25.594;2022-12-31T13:01:39;34.97;18.40;
12542;PMS3003;6337;49.556;25.594;2022-12-31T13:04:14;34.83;18.63;
12542;PMS3003;6337;49.556;25.594;2022-12-31T13:07:00;30.43;17.60;
12542;PMS3003;6337;49.556;25.594;2022-12-31T13:09:41;39.13;20.17;
12542;PMS3003;6337;49.556;25.594;2022-12-31T13:12:15;27.63;17.30;
12542;PMS3003;6337;49.556;25.594;2022-12-31T13:14:51;35.33;18.80;
12542;PMS3003;6337;49.556;25.594;2022-12-31T13:23:40;30.13;19.30;
12542;PMS3003;6337;49.556;25.594;2022-12-31T13:26:13;32.93;21.27;
12542;PMS3003;6337;49.556;25.594;2022-12-31T13:28:52;34.57;20.27;
12542;PMS3003;6337;49.556;25.594;2022-12-31T13:31:32;34.50;22.00;
12542;PMS3003;6337;49.556;25.594;2022-12-31T13:34:30;29.40;19.80;
12542;PMS3003;6337;49.556;25.594;2022-12-31T13:40:05;39.80;21.03;
12542;PMS3003;6337;49.556;25.594;2022-12-31T13:46:18;44.80;29.67;
12542;PMS3003;6337;49.556;25.594;2022-12-31T13:52:06;41.57;22.97;
12542;PMS3003;6337;49.556;25.594;2022-12-31T13:55:12;56.43;31.87;
12542;PMS3003;6337;49.556;25.594;2022-12-31T13:58:03;47.63;26.63;
12542;PMS3003;6337;49.556;25.594;2022-12-31T14:00:47;53.67;29.13;
12542;PMS3003;6337;49.556;25.594;2022-12-31T14:03:23;34.10;23.10;
12542;PMS3003;6337;49.556;25.594;2022-12-31T14:08:57;65.20;38.23;
12542;PMS3003;6337;49.556;25.594;2022-12-31T14:11:41;50.63;33.63;
12542;PMS3003;6337;49.556;25.594;2022-12-31T14:14:21;53.40;35.33;
12542;PMS3003;6337;49.556;25.594;2022-12-31T14:17:21;39.23;23.67;
12542;PMS3003;6337;49.556;25.594;2022-12-31T14:19:58;41.13;25.17;
12542;PMS3003;6337;49.556;25.594;2022-12-31T14:22:42;50.10;24.30;
12542;PMS3003;6337;49.556;25.594;2022-12-31T14:25:14;32.43;21.20;
12542;PMS3003;6337;49.556;25.594;2022-12-31T14:27:45;40.40;23.53;
12542;PMS3003;6337;49.556;25.594;2022-12-31T14:30:14;36.07;22.27;
12542;PMS3003;6337;49.556;25.594;2022-12-31T14:32:48;40.10;25.00;
12542;PMS3003;6337;49.556;25.594;2022-12-31T14:35:26;45.27;25.40;
12542;PMS3003;6337;49.556;25.594;2022-12-31T14:37:58;61.40;28.13;
12542;PMS3003;6337;49.556;25.594;2022-12-31T14:40:29;37.07;23.20;
12542;PMS3003;6337;49.556;25.594;2022-12-31T14:43:03;51.20;25.83;
12542;PMS3003;6337;49.556;25.594;2022-12-31T14:45:39;60.27;34.90;
12542;PMS3003;6337;49.556;25.594;2022-12-31T14:48:14;60.77;31.23;
12542;PMS3003;6337;49.556;25.594;2022-12-31T14:50:48;47.63;25.50;
12542;PMS3003;6337;49.556;25.594;2022-12-31T14:53:17;46.33;26.70;
12542;PMS3003;6337;49.556;25.594;2022-12-31T14:55:56;48.83;26.63;
12542;PMS3003;6337;49.556;25.594;2022-12-31T14:58:31;51.87;29.83;
12542;PMS3003;6337;49.556;25.594;2022-12-31T15:01:01;62.43;28.10;
12542;PMS3003;6337;49.556;25.594;2022-12-31T15:03:33;62.27;27.80;
12542;PMS3003;6337;49.556;25.594;2022-12-31T15:06:06;53.87;26.13;
12542;PMS3003;6337;49.556;25.594;2022-12-31T15:08:39;98.00;32.77;
12542;PMS3003;6337;49.556;25.594;2022-12-31T15:11:16;54.20;30.77;
12542;PMS3003;6337;49.556;25.594;2022-12-31T15:13:51;52.97;30.80;
12542;PMS3003;6337;49.556;25.594;2022-12-31T15:16:26;49.30;27.13;
12542;PMS3003;6337;49.556;25.594;2022-12-31T15:21:52;51.03;25.60;
12542;PMS3003;6337;49.556;25.594;2022-12-31T15:24:24;46.47;28.80;
12542;PMS3003;6337;49.556;25.594;2022-12-31T15:26:56;47.70;28.70;
12542;PMS3003;6337;49.556;25.594;2022-12-31T15:29:26;42.97;24.70;
12542;PMS3003;6337;49.556;25.594;2022-12-31T15:31:54;43.93;26.20;
12542;PMS3003;6337;49.556;25.594;2022-12-31T15:34:24;45.20;27.10;
12542;PMS3003;6337;49.556;25.594;2022-12-31T15:36:55;53.00;29.47;
12542;PMS3003;6337;49.556;25.594;2022-12-31T15:39:26;56.73;31.90;
12542;PMS3003;6337;49.556;25.594;2022-12-31T15:42:03;88.40;44.67;
12542;PMS3003;6337;49.556;25.594;2022-12-31T15:47:59;56.13;26.20;
12542;PMS3003;6337;49.556;25.594;2022-12-31T15:50:28;47.23;28.03;
12542;PMS3003;6337;49.556;25.594;2022-12-31T15:52:59;42.27;25.03;
12542;PMS3003;6337;49.556;25.594;2022-12-31T15:55:28;47.77;25.97;
12542;PMS3003;6337;49.556;25.594;2022-12-31T15:57:57;41.53;25.70;
12542;PMS3003;6337;49.556;25.594;2022-12-31T16:00:28;45.43;23.80;
12542;PMS3003;6337;49.556;25.594;2022-12-31T16:02:58;35.17;22.23;
12542;PMS3003;6337;49.556;25.594;2022-12-31T16:05:27;36.07;23.70;
12542;PMS3003;6337;49.556;25.594;2022-12-31T16:07:56;41.60;26.40;
12542;PMS3003;6337;49.556;25.594;2022-12-31T16:10:30;33.33;21.00;
12542;PMS3003;6337;49.556;25.594;2022-12-31T16:12:58;37.57;22.50;
12542;PMS3003;6337;49.556;25.594;2022-12-31T16:15:29;39.97;24.70;
12542;PMS3003;6337;49.556;25.594;2022-12-31T16:18:01;44.50;24.87;
12542;PMS3003;6337;49.556;25.594;2022-12-31T16:20:29;35.33;21.63;
12542;PMS3003;6337;49.556;25.594;2022-12-31T16:22:58;42.37;26.07;
12542;PMS3003;6337;49.556;25.594;2022-12-31T16:25:30;45.70;26.30;
12542;PMS3003;6337;49.556;25.594;2022-12-31T16:28:01;83.10;48.43;
12542;PMS3003;6337;49.556;25.594;2022-12-31T16:30:29;87.57;60.53;
12542;PMS3003;6337;49.556;25.594;2022-12-31T16:32:59;50.93;33.33;
12542;PMS3003;6337;49.556;25.594;2022-12-31T16:35:30;49.17;26.20;
12542;PMS3003;6337;49.556;25.594;2022-12-31T16:38:02;40.60;24.57;
12542;PMS3003;6337;49.556;25.594;2022-12-31T16:40:32;49.60;30.20;
12542;PMS3003;6337;49.556;25.594;2022-12-31T16:43:00;57.13;33.27;
12542;PMS3003;6337;49.556;25.594;2022-12-31T16:45:29;51.50;30.67;
12542;PMS3003;6337;49.556;25.594;2022-12-31T16:48:01;70.27;42.03;